Time;durP1;ratioP1;P1;durP2;ratioP2;P2;SDS_P1;SDS_P2;PMS_P1;PMS_P2;Temp;Humidity;BMP_temperature;BMP_pressure;BME280_temperature;BME280_humidity;BME280_pressure;Samples;Min_cycle;Max_cycle;Signal;HPM_P1;HPM_P2
2024/01/02 00:01:39;;;;;;;;;;;5.40;99.90;;;;;;4990261;28;19913;-80
2024/01/02 00:04:25;;;;;;;;;;;5.30;99.90;;;;;;5035642;28;19917;-81
2024/01/02 00:07:11;;;;;;;;;;;5.30;99.90;;;;;;5021665;28;19928;-80
2024/01/02 00:09:57;;;;;;;;;;;5.30;99.90;;;;;;4984795;28;19918;-80
2024/01/02 00:12:43;;;;;;;;;;;5.30;99.90;;;;;;5012317;28;19967;-80
2024/01/02 00:15:29;;;;;;;;;;;5.30;99.90;;;;;;4994650;28;19914;-79
2024/01/02 00:18:15;;;;;;;;;;;5.30;99.90;;;;;;4994687;28;19913;-80
2024/01/02 00:21:01;;;;;;;;;;;5.30;99.90;;;;;;4995160;28;19913;-80
2024/01/02 00:23:46;;;;;;;;;;;5.40;99.90;;;;;;5018240;28;19921;-79
2024/01/02 00:26:32;;;;;;;;;;;5.30;99.90;;;;;;4996940;28;19922;-79
2024/01/02 00:29:18;;;;;;;;;;;5.30;99.90;;;;;;5004732;28;19917;-79
2024/01/02 00:32:04;;;;;;;;;;;5.30;99.90;;;;;;4994949;28;19924;-80
2024/01/02 00:34:51;;;;;;;;;;;5.20;99.90;;;;;;4994400;28;19917;-79
2024/01/02 00:37:37;;;;;;;;;;;5.20;99.90;;;;;;5021646;28;19944;-80
2024/01/02 00:40:23;;;;;;;;;;;5.20;99.90;;;;;;5022035;28;19914;-80
2024/01/02 00:43:09;;;;;;;;;;;5.20;99.90;;;;;;5005693;28;20413;-80
2024/01/02 00:45:56;;;;;;;;;;;5.10;99.90;;;;;;4969989;28;19918;-80
2024/01/02 00:48:42;;;;;;;;;;;5.10;99.90;;;;;;5006315;28;19921;-80
2024/01/02 00:51:28;;;;;;;;;;;5.10;99.90;;;;;;5007003;28;19917;-80
2024/01/02 00:54:14;;;;;;;;;;;5.10;99.90;;;;;;5025388;28;19924;-80
2024/01/02 00:57:00;;;;;;;;;;;5.10;99.90;;;;;;4992138;28;19952;-80
2024/01/02 00:59:46;;;;;;;;;;;5.20;99.90;;;;;;4980096;28;20026;-79
2024/01/02 01:02:32;;;;;;;;;;;5.20;99.90;;;;;;5011806;28;19924;-79
2024/01/02 01:05:18;;;;;;;;;;;5.20;99.90;;;;;;5004057;28;20669;-80
2024/01/02 01:08:04;;;;;;;;;;;5.20;99.90;;;;;;5008949;28;19918;-79
2024/01/02 01:10:50;;;;;;;;;;;5.20;99.90;;;;;;5030760;28;20330;-80
2024/01/02 01:13:36;;;;;;;;;;;5.20;99.90;;;;;;4974230;28;19918;-80
2024/01/02 01:16:22;;;;;;;;;;;5.20;99.90;;;;;;4993114;28;19953;-80
2024/01/02 01:19:08;;;;;;;;;;;5.20;99.90;;;;;;4982985;28;20223;-79
2024/01/02 01:21:54;;;;;;;;;;;5.20;99.90;;;;;;5028215;28;19918;-80
2024/01/02 01:24:40;;;;;;;;;;;5.20;99.90;;;;;;4974913;28;19921;-79
2024/01/02 01:27:26;;;;;;;;;;;5.20;99.90;;;;;;5030143;28;19932;-79
2024/01/02 01:30:12;;;;;;;;;;;5.20;99.90;;;;;;5004603;28;19968;-80
2024/01/02 01:32:58;;;;;;;;;;;5.20;99.90;;;;;;4996595;28;19948;-79
2024/01/02 01:35:44;;;;;;;;;;;5.20;99.90;;;;;;5002801;28;19928;-80
2024/01/02 01:38:30;;;;;;;;;;;5.20;99.90;;;;;;5016100;28;20302;-79
2024/01/02 01:41:15;;;;;;;;;;;5.20;99.90;;;;;;5016535;28;19917;-79
2024/01/02 01:44:01;;;;;;;;;;;5.20;99.90;;;;;;5002805;28;19919;-79
2024/01/02 01:46:47;;;;;;;;;;;5.20;99.90;;;;;;4959869;28;19922;-78
2024/01/02 01:49:33;;;;;;;;;;;5.20;99.90;;;;;;5001574;28;19953;-78
2024/01/02 01:52:19;;;;;;;;;;;5.20;99.90;;;;;;4973084;28;19929;-79
2024/01/02 01:55:05;;;;;;;;;;;5.20;99.90;;;;;;4979524;28;19921;-78
2024/01/02 01:57:51;;;;;;;;;;;5.20;99.90;;;;;;5000652;28;19969;-79
2024/01/02 02:00:37;;;;;;;;;;;5.20;99.90;;;;;;5011719;28;19953;-79
2024/01/02 02:03:24;;;;;;;;;;;5.20;99.90;;;;;;5015172;28;19917;-80
2024/01/02 02:06:13;;;;;;;;;;;5.20;99.90;;;;;;4970170;28;19934;-80
2024/01/02 02:08:59;;;;;;;;;;;5.20;99.90;;;;;;5020540;28;20391;-80
2024/01/02 02:11:45;;;;;;;;;;;5.20;99.90;;;;;;4999310;28;19914;-79
2024/01/02 02:14:31;;;;;;;;;;;5.30;99.90;;;;;;4977729;28;19925;-79
2024/01/02 02:17:18;;;;;;;;;;;5.20;99.90;;;;;;4982521;28;20346;-79
2024/01/02 02:20:05;;;;;;;;;;;5.30;99.90;;;;;;4994832;28;19928;-80
2024/01/02 02:22:51;;;;;;;;;;;5.30;99.90;;;;;;5021521;28;19917;-80
2024/01/02 02:25:37;;;;;;;;;;;5.30;99.90;;;;;;5007674;28;19917;-79
2024/01/02 02:28:23;;;;;;;;;;;5.30;99.90;;;;;;5003141;28;20011;-80
2024/01/02 02:31:09;;;;;;;;;;;5.30;99.90;;;;;;5000776;28;19918;-79
2024/01/02 02:33:55;;;;;;;;;;;5.30;99.90;;;;;;4998719;28;19914;-79
2024/01/02 02:36:41;;;;;;;;;;;5.30;99.90;;;;;;5011074;28;19917;-79
2024/01/02 02:39:27;;;;;;;;;;;5.30;99.90;;;;;;4986445;28;19967;-80
2024/01/02 02:42:13;;;;;;;;;;;5.30;99.90;;;;;;4984178;28;19917;-79
2024/01/02 02:44:59;;;;;;;;;;;5.30;99.90;;;;;;4982988;28;19913;-79
2024/01/02 02:47:46;;;;;;;;;;;5.30;99.90;;;;;;5013015;28;20026;-80
2024/01/02 02:50:32;;;;;;;;;;;5.40;99.90;;;;;;4998090;28;20016;-80
2024/01/02 02:53:18;;;;;;;;;;;5.40;99.90;;;;;;4999776;28;20242;-79
2024/01/02 02:56:04;;;;;;;;;;;5.40;99.90;;;;;;5002213;28;19918;-79
2024/01/02 02:58:50;;;;;;;;;;;5.40;99.90;;;;;;4991709;28;20051;-79
2024/01/02 03:01:36;;;;;;;;;;;5.50;99.90;;;;;;4971624;28;19918;-80
2024/01/02 03:04:22;;;;;;;;;;;5.50;99.90;;;;;;5003368;28;19918;-79
2024/01/02 03:07:08;;;;;;;;;;;5.50;99.90;;;;;;4987848;28;19929;-79
2024/01/02 03:09:53;;;;;;;;;;;5.50;99.90;;;;;;4980871;28;19925;-79
2024/01/02 03:12:40;;;;;;;;;;;;;;;;;;5016777;28;20806;-77
2024/01/02 03:15:26;;;;;;;;;;;5.60;99.90;;;;;;5003876;28;19918;-78
2024/01/02 03:18:12;;;;;;;;;;;5.60;99.90;;;;;;4989343;28;19964;-78
2024/01/02 03:20:58;;;;;;;;;;;5.70;99.90;;;;;;4985380;28;19945;-78
2024/01/02 03:23:44;;;;;;;;;;;5.70;99.90;;;;;;4982486;28;20001;-79
2024/01/02 03:26:30;;;;;;;;;;;5.80;99.90;;;;;;5013292;28;19921;-79
2024/01/02 03:29:16;;;;;;;;;;;5.80;99.90;;;;;;5009364;28;19951;-79
2024/01/02 03:32:02;;;;;;;;;;;;;;;;;;4984267;28;19921;-79
2024/01/02 03:34:50;;;;;;;;;;;;;;;;;;5002549;28;19968;-79
2024/01/02 03:37:37;;;;;;;;;;;;;;;;;;5000940;28;20424;-79
2024/01/02 03:40:23;;;;;;;;;;;;;;;;;;5015697;28;20034;-79
2024/01/02 03:43:09;;;;;;;;;;;5.90;99.90;;;;;;5003819;28;19929;-79
2024/01/02 03:45:55;;;;;;;;;;;5.90;99.90;;;;;;4987464;28;19984;-79
2024/01/02 03:48:41;;;;;;;;;;;6.00;99.90;;;;;;5000332;28;19932;-79
2024/01/02 03:51:27;;;;;;;;;;;6.00;99.90;;;;;;5004285;28;19917;-79
2024/01/02 03:54:13;;;;;;;;;;;6.10;99.90;;;;;;4994808;28;19913;-78
2024/01/02 03:56:59;;;;;;;;;;;6.10;99.90;;;;;;4983817;28;20364;-79
2024/01/02 03:59:45;;;;;;;;;;;6.10;99.90;;;;;;5000130;28;19993;-78
2024/01/02 04:02:31;;;;;;;;;;;6.20;99.90;;;;;;4988523;28;19917;-79
2024/01/02 04:05:17;;;;;;;;;;;6.20;99.90;;;;;;4996252;28;20393;-79
2024/01/02 04:08:03;;;;;;;;;;;;;;;;;;5000638;28;19976;-79
2024/01/02 04:10:49;;;;;;;;;;;6.20;99.90;;;;;;4990735;28;19917;-79
2024/01/02 04:13:35;;;;;;;;;;;6.30;99.90;;;;;;4993622;28;19914;-79
2024/01/02 04:16:21;;;;;;;;;;;6.30;99.90;;;;;;4986379;28;19928;-79
2024/01/02 04:19:07;;;;;;;;;;;;;;;;;;4999476;28;19929;-79
2024/01/02 04:21:53;;;;;;;;;;;;;;;;;;5000611;28;19928;-79
2024/01/02 04:24:40;;;;;;;;;;;;;;;;;;5010313;28;20308;-79
2024/01/02 04:27:25;;;;;;;;;;;6.20;99.90;;;;;;5012926;28;20394;-79
2024/01/02 04:30:11;;;;;;;;;;;6.30;99.90;;;;;;4987247;28;20523;-79
2024/01/02 04:32:57;;;;;;;;;;;6.30;99.90;;;;;;4985095;28;19914;-80
2024/01/02 04:35:43;;;;;;;;;;;6.20;99.90;;;;;;4996149;28;19917;-80
2024/01/02 04:38:29;;;;;;;;;;;6.20;99.90;;;;;;5001984;28;20024;-80
2024/01/02 04:41:15;;;;;;;;;;;6.20;99.90;;;;;;5004883;28;19914;-79
2024/01/02 04:44:01;;;;;;;;;;;6.20;99.90;;;;;;5025646;28;19918;-79
2024/01/02 04:47:09;;;;;;;;;;;6.20;99.90;;;;;;5001805;28;19937;-80
2024/01/02 04:49:55;;;;;;;;;;;6.20;99.90;;;;;;4990614;28;20028;-80
2024/01/02 04:52:41;;;;;;;;;;;6.20;99.90;;;;;;4972208;28;20000;-80
2024/01/02 04:55:26;;;;;;;;;;;6.20;99.90;;;;;;5008722;28;19975;-80
2024/01/02 04:58:12;;;;;;;;;;;6.20;99.90;;;;;;5007798;28;19925;-80
2024/01/02 05:00:58;;;;;;;;;;;6.20;99.90;;;;;;5003765;28;19917;-79
2024/01/02 05:03:44;;;;;;;;;;;6.20;99.90;;;;;;4983043;28;19968;-80
2024/01/02 05:06:30;;;;;;;;;;;6.20;99.90;;;;;;4990023;28;19948;-80
2024/01/02 05:09:16;;;;;;;;;;;6.20;99.90;;;;;;4991886;28;20362;-78
2024/01/02 05:12:02;;;;;;;;;;;6.20;99.90;;;;;;5002685;28;19914;-79
2024/01/02 05:14:48;;;;;;;;;;;6.10;99.90;;;;;;5008315;28;20285;-79
2024/01/02 05:17:34;;;;;;;;;;;6.10;99.90;;;;;;5014344;28;19967;-79
2024/01/02 05:20:20;;;;;;;;;;;6.10;99.90;;;;;;5009953;28;19941;-79
2024/01/02 05:23:06;;;;;;;;;;;6.20;99.90;;;;;;4991918;28;19925;-80
2024/01/02 05:25:52;;;;;;;;;;;6.20;99.90;;;;;;4995357;28;20249;-81
2024/01/02 05:28:37;;;;;;;;;;;6.10;99.90;;;;;;5011134;28;19925;-80
2024/01/02 05:31:23;;;;;;;;;;;6.20;99.90;;;;;;4997089;28;19914;-79
2024/01/02 05:34:09;;;;;;;;;;;6.10;99.90;;;;;;4982985;28;20326;-79
2024/01/02 05:36:55;;;;;;;;;;;6.10;99.90;;;;;;4988770;28;20017;-80
2024/01/02 05:39:41;;;;;;;;;;;;;;;;;;5008355;28;19944;-79
2024/01/02 05:42:28;;;;;;;;;;;;;;;;;;4997243;28;20332;-80
2024/01/02 05:45:14;;;;;;;;;;;;;;;;;;5004394;28;19913;-79
2024/01/02 05:48:00;;;;;;;;;;;;;;;;;;5012501;28;19917;-78
2024/01/02 05:50:46;;;;;;;;;;;;;;;;;;4999379;28;20015;-79
2024/01/02 05:53:33;;;;;;;;;;;;;;;;;;5018024;28;19917;-79
2024/01/02 05:56:19;;;;;;;;;;;;;;;;;;5004106;28;20376;-79
2024/01/02 05:59:05;;;;;;;;;;;;;;;;;;5003125;28;19928;-79
2024/01/02 06:01:52;;;;;;;;;;;;;;;;;;5004111;28;19964;-80
2024/01/02 06:04:38;;;;;;;;;;;;;;;;;;5017509;28;20361;-79
2024/01/02 06:07:24;;;;;;;;;;;;;;;;;;5015397;28;19921;-80
2024/01/02 06:10:10;;;;;;;;;;;;;;;;;;4990552;28;20381;-79
2024/01/02 06:12:56;;;;;;;;;;;;;;;;;;4998808;28;20894;-80
2024/01/02 06:15:43;;;;;;;;;;;;;;;;;;4998022;28;19921;-80
2024/01/02 06:18:29;;;;;;;;;;;;;;;;;;5002417;28;19928;-80
2024/01/02 06:21:15;;;;;;;;;;;;;;;;;;5014020;28;19917;-79
2024/01/02 06:24:02;;;;;;;;;;;;;;;;;;5016316;28;19944;-78
2024/01/02 06:26:48;;;;;;;;;;;;;;;;;;5016614;28;19921;-78
2024/01/02 06:29:34;;;;;;;;;;;6.20;99.90;;;;;;5004931;28;20305;-78
2024/01/02 06:32:20;;;;;;;;;;;6.20;99.90;;;;;;5003672;28;19928;-78
2024/01/02 06:35:06;;;;;;;;;;;6.10;99.90;;;;;;4997709;28;20380;-80
2024/01/02 06:37:52;;;;;;;;;;;6.10;99.90;;;;;;5002427;28;19932;-79
2024/01/02 06:40:38;;;;;;;;;;;6.10;99.90;;;;;;5000027;28;19914;-79
2024/01/02 06:43:23;;;;;;;;;;;6.10;99.90;;;;;;4963068;28;19945;-79
2024/01/02 06:46:11;;;;;;;;;;;6.10;99.90;;;;;;4992289;28;19945;-80
2024/01/02 06:48:57;;;;;;;;;;;6.10;99.90;;;;;;4984574;28;19932;-78
2024/01/02 06:51:42;;;;;;;;;;;6.10;99.90;;;;;;5015941;28;20397;-81
2024/01/02 06:54:28;;;;;;;;;;;6.10;99.90;;;;;;5012411;28;19914;-81
2024/01/02 06:57:15;;;;;;;;;;;6.10;99.90;;;;;;5002516;28;19949;-81
2024/01/02 07:00:00;;;;;;;;;;;6.10;99.90;;;;;;4990323;28;19913;-79
2024/01/02 07:02:46;;;;;;;;;;;6.00;99.90;;;;;;4985277;28;20000;-79
2024/01/02 07:05:32;;;;;;;;;;;6.10;99.90;;;;;;4987295;28;20335;-79
2024/01/02 07:08:19;;;;;;;;;;;6.10;99.90;;;;;;4997146;28;20022;-79
2024/01/02 07:11:04;;;;;;;;;;;6.00;99.90;;;;;;5010304;28;20016;-79
2024/01/02 07:13:50;;;;;;;;;;;6.00;99.90;;;;;;5001666;28;19918;-79
2024/01/02 07:16:36;;;;;;;;;;;6.00;99.90;;;;;;4993577;28;20138;-79
2024/01/02 07:19:22;;;;;;;;;;;6.00;99.90;;;;;;4996607;28;19913;-79
2024/01/02 07:22:08;;;;;;;;;;;6.00;99.90;;;;;;4979830;28;19913;-80
2024/01/02 07:24:54;;;;;;;;;;;6.00;99.90;;;;;;4989441;28;20326;-80
2024/01/02 07:27:40;;;;;;;;;;;6.00;99.90;;;;;;5006312;28;19932;-78
2024/01/02 07:30:25;;;;;;;;;;;6.00;99.90;;;;;;5024891;28;19917;-80
2024/01/02 07:33:11;;;;;;;;;;;6.00;99.90;;;;;;4996997;28;19928;-80
2024/01/02 07:35:57;;;;;;;;;;;6.00;99.90;;;;;;4985477;28;19925;-80
2024/01/02 07:38:43;;;;;;;;;;;6.00;99.90;;;;;;4988129;28;20318;-80
2024/01/02 07:41:29;;;;;;;;;;;5.90;99.90;;;;;;5013657;28;20023;-80
2024/01/02 07:44:15;;;;;;;;;;;6.00;99.90;;;;;;5016666;28;19928;-80
2024/01/02 07:47:01;;;;;;;;;;;6.00;99.90;;;;;;4985946;28;19980;-80
2024/01/02 07:49:47;;;;;;;;;;;6.00;99.90;;;;;;5001335;28;19921;-79
2024/01/02 07:52:33;;;;;;;;;;;6.00;99.90;;;;;;4985240;28;19924;-80
2024/01/02 07:55:19;;;;;;;;;;;6.00;99.90;;;;;;5010753;28;19945;-80
2024/01/02 07:58:05;;;;;;;;;;;5.90;99.90;;;;;;4989933;28;20807;-79
2024/01/02 08:00:51;;;;;;;;;;;6.00;99.90;;;;;;4999994;28;19921;-80
2024/01/02 08:03:37;;;;;;;;;;;6.00;99.90;;;;;;5002382;28;19928;-78
2024/01/02 08:06:22;;;;;;;;;;;6.00;99.90;;;;;;5001555;28;19913;-79
2024/01/02 08:09:10;;;;;;;;;;;5.90;99.90;;;;;;5012933;28;20308;-76
2024/01/02 08:11:56;;;;;;;;;;;5.90;99.90;;;;;;5014662;28;19921;-76
2024/01/02 08:14:42;;;;;;;;;;;5.80;99.90;;;;;;5010697;28;19949;-77
2024/01/02 08:17:28;;;;;;;;;;;5.80;99.90;;;;;;4986248;28;20006;-76
2024/01/02 08:20:14;;;;;;;;;;;5.80;99.90;;;;;;4971533;28;19937;-77
2024/01/02 08:23:00;;;;;;;;;;;;;;;;;;5001823;28;19918;-77
2024/01/02 08:25:47;;;;;;;;;;;;;;;;;;5006123;28;19931;-77
2024/01/02 08:28:33;;;;;;;;;;;;;;;;;;5013401;28;19932;-77
2024/01/02 08:31:19;;;;;;;;;;;;;;;;;;5012212;28;20501;-77
2024/01/02 08:34:05;;;;;;;;;;;;;;;;;;5013925;28;19917;-78
2024/01/02 08:36:52;;;;;;;;;;;;;;;;;;5022061;28;19921;-78
2024/01/02 08:39:38;;;;;;;;;;;;;;;;;;4995145;28;19929;-78
2024/01/02 08:42:25;;;;;;;;;;;;;;;;;;5009748;28;20389;-78
2024/01/02 08:45:11;;;;;;;;;;;;;;;;;;4998544;28;19932;-78
2024/01/02 08:47:58;;;;;;;;;;;;;;;;;;4998942;28;19983;-78
2024/01/02 08:50:44;;;;;;;;;;;;;;;;;;5011687;28;19918;-78
2024/01/02 08:53:31;;;;;;;;;;;;;;;;;;5013626;28;19928;-79
2024/01/02 08:56:18;;;;;;;;;;;;;;;;;;4993437;28;19945;-78
2024/01/02 08:59:04;;;;;;;;;;;;;;;;;;4992190;28;19921;-77
2024/01/02 09:01:51;;;;;;;;;;;;;;;;;;5014478;28;19925;-77
2024/01/02 09:04:37;;;;;;;;;;;;;;;;;;5000476;28;19925;-79
2024/01/02 09:07:24;;;;;;;;;;;;;;;;;;4998613;28;19964;-77
2024/01/02 09:10:10;;;;;;;;;;;;;;;;;;4993342;28;19997;-78
2024/01/02 09:12:56;;;;;;;;;;;;;;;;;;5013293;28;19913;-77
2024/01/02 09:15:42;;;;;;;;;;;;;;;;;;5013818;28;19971;-79
2024/01/02 09:18:29;;;;;;;;;;;;;;;;;;5011869;28;20334;-78
2024/01/02 09:21:15;;;;;;;;;;;;;;;;;;5000465;28;19917;-78
2024/01/02 09:24:02;;;;;;;;;;;;;;;;;;4997685;28;20356;-79
2024/01/02 09:26:50;;;;;;;;;;;;;;;;;;5014123;28;19987;-79
2024/01/02 09:29:36;;;;;;;;;;;;;;;;;;5018820;28;20038;-78
2024/01/02 09:32:22;;;;;;;;;;;;;;;;;;5018045;28;20004;-80
2024/01/02 09:35:08;;;;;;;;;;;;;;;;;;5012908;28;19959;-80
2024/01/02 09:37:55;;;;;;;;;;;;;;;;;;4994927;28;20384;-79
2024/01/02 09:40:41;;;;;;;;;;;;;;;;;;5001285;28;19984;-79
2024/01/02 09:43:28;;;;;;;;;;;;;;;;;;5003740;28;19918;-79
2024/01/02 09:46:14;;;;;;;;;;;;;;;;;;5018490;28;19928;-80
2024/01/02 09:49:00;;;;;;;;;;;;;;;;;;5007001;28;20245;-79
2024/01/02 09:51:46;;;;;;;;;;;;;;;;;;5004091;28;19996;-79
2024/01/02 09:54:32;;;;;;;;;;;;;;;;;;4996629;28;19968;-79
2024/01/02 09:57:19;;;;;;;;;;;;;;;;;;5007597;28;19971;-79
2024/01/02 10:00:05;;;;;;;;;;;;;;;;;;4998918;28;19921;-78
2024/01/02 10:02:52;;;;;;;;;;;;;;;;;;4996544;28;19921;-80
2024/01/02 10:05:38;;;;;;;;;;;;;;;;;;5002581;28;19918;-78
2024/01/02 10:08:24;;;;;;;;;;;;;;;;;;4983596;28;19922;-78
2024/01/02 10:11:10;;;;;;;;;;;;;;;;;;5012690;28;19928;-78
2024/01/02 10:13:57;;;;;;;;;;;;;;;;;;4995376;28;19928;-78
2024/01/02 10:16:43;;;;;;;;;;;;;;;;;;5002208;28;20016;-79
2024/01/02 10:19:30;;;;;;;;;;;;;;;;;;5013420;28;19996;-79
2024/01/02 10:22:16;;;;;;;;;;;;;;;;;;4998843;28;19963;-80
2024/01/02 10:25:02;;;;;;;;;;;;;;;;;;5003061;28;20238;-80
2024/01/02 10:27:48;;;;;;;;;;;;;;;;;;5005337;28;19926;-80
2024/01/02 10:30:35;;;;;;;;;;;;;;;;;;5015043;28;19975;-80
2024/01/02 10:33:21;;;;;;;;;;;;;;;;;;5003701;28;19913;-79
2024/01/02 10:36:07;;;;;;;;;;;;;;;;;;5008514;28;20655;-79
2024/01/02 10:38:53;;;;;;;;;;;;;;;;;;4987552;28;19926;-80
2024/01/02 10:41:40;;;;;;;;;;;;;;;;;;4998497;28;19924;-79
2024/01/02 10:44:27;;;;;;;;;;;;;;;;;;4985200;28;20005;-79
2024/01/02 10:47:13;;;;;;;;;;;;;;;;;;4977937;28;19935;-80
2024/01/02 10:49:59;;;;;;;;;;;;;;;;;;4981617;28;19914;-78
2024/01/02 10:52:46;;;;;;;;;;;;;;;;;;4984284;28;20429;-79
2024/01/02 10:55:32;;;;;;;;;;;;;;;;;;4967856;28;19922;-78
2024/01/02 10:58:19;;;;;;;;;;;;;;;;;;4991539;28;20568;-78
2024/01/02 11:01:06;;;;;;;;;;;;;;;;;;4980682;28;19980;-78
2024/01/02 11:03:52;;;;;;;;;;;;;;;;;;4987479;28;20390;-79
2024/01/02 11:06:39;;;;;;;;;;;;;;;;;;4982831;28;20567;-79
2024/01/02 11:09:26;;;;;;;;;;;;;;;;;;4961680;28;19993;-78
2024/01/02 11:12:13;;;;;;;;;;;;;;;;;;4988618;28;20000;-79
2024/01/02 11:14:59;;;;;;;;;;;;;;;;;;4993751;28;19914;-77
2024/01/02 11:17:45;;;;;;;;;;;;;;;;;;4979297;28;20239;-78
2024/01/02 11:20:31;;;;;;;;;;;;;;;;;;4997843;28;19925;-77
2024/01/02 11:23:18;;;;;;;;;;;;;;;;;;4995858;28;19918;-77
2024/01/02 11:26:04;;;;;;;;;;;;;;;;;;4981444;28;20028;-77
2024/01/02 11:28:51;;;;;;;;;;;;;;;;;;4985808;28;19949;-77
2024/01/02 11:31:37;;;;;;;;;;;;;;;;;;4977019;28;19918;-77
2024/01/02 11:34:23;;;;;;;;;;;;;;;;;;4993116;28;19937;-79
2024/01/02 11:37:10;;;;;;;;;;;;;;;;;;4986567;28;19937;-80
2024/01/02 11:39:56;;;;;;;;;;;;;;;;;;4978790;28;20324;-79
2024/01/02 11:42:42;;;;;;;;;;;;;;;;;;4977605;28;19992;-79
2024/01/02 11:45:28;;;;;;;;;;;;;;;;;;4979268;28;20442;-78
2024/01/02 11:48:15;;;;;;;;;;;;;;;;;;4984329;28;19921;-78
2024/01/02 11:51:01;;;;;;;;;;;;;;;;;;4987612;28;19977;-78
2024/01/02 11:53:48;;;;;;;;;;;;;;;;;;4983808;28;19917;-77
2024/01/02 11:56:34;;;;;;;;;;;;;;;;;;4973644;28;19918;-78
2024/01/02 11:59:20;;;;;;;;;;;;;;;;;;4987370;28;19914;-78
2024/01/02 12:02:08;;;;;;;;;;;;;;;;;;4998461;28;19921;-78
2024/01/02 12:04:54;;;;;;;;;;;;;;;;;;4998575;28;19918;-79
2024/01/02 12:07:41;;;;;;;;;;;;;;;;;;4994763;28;19932;-78
2024/01/02 12:10:28;;;;;;;;;;;;;;;;;;4983830;28;19977;-78
2024/01/02 12:13:14;;;;;;;;;;;;;;;;;;4981237;28;19921;-78
2024/01/02 12:16:00;;;;;;;;;;;;;;;;;;4988048;28;19914;-79
2024/01/02 12:18:47;;;;;;;;;;;;;;;;;;4985023;28;20255;-78
2024/01/02 12:21:33;;;;;;;;;;;;;;;;;;4988641;28;20005;-78
2024/01/02 12:24:19;;;;;;;;;;;6.40;99.90;;;;;;4987682;28;19955;-79
2024/01/02 12:27:05;;;;;;;;;;;6.40;99.90;;;;;;4951405;28;19950;-80
2024/01/02 12:29:55;;;;;;;;;;;6.40;99.90;;;;;;4972238;28;19925;-78
2024/01/02 12:33:09;;;;;;;;;;;6.50;99.90;;;;;;4989706;28;19918;-79
2024/01/02 12:35:55;;;;;;;;;;;6.50;99.90;;;;;;4957725;28;19917;-79
2024/01/02 12:38:47;;;;;;;;;;;6.60;99.90;;;;;;5010378;28;19925;-78
2024/01/02 12:41:41;;;;;;;;;;;6.60;99.90;;;;;;4976170;28;19971;-79
2024/01/02 12:44:29;;;;;;;;;;;6.60;99.90;;;;;;4994703;28;19918;-77
2024/01/02 12:47:16;;;;;;;;;;;6.60;99.90;;;;;;4983760;28;19921;-78
2024/01/02 12:50:03;;;;;;;;;;;6.70;99.90;;;;;;4983960;28;20636;-78
2024/01/02 12:52:51;;;;;;;;;;;6.80;99.90;;;;;;4997216;28;19913;-78
2024/01/02 12:55:37;;;;;;;;;;;6.80;99.90;;;;;;4986971;28;19917;-79
2024/01/02 12:58:25;;;;;;;;;;;6.90;99.90;;;;;;4996603;28;19942;-78
2024/01/02 13:01:11;;;;;;;;;;;6.90;99.90;;;;;;4995014;28;20028;-78
2024/01/02 13:03:58;;;;;;;;;;;7.00;99.90;;;;;;4995734;28;19943;-79
2024/01/02 13:06:45;;;;;;;;;;;7.00;99.90;;;;;;4986297;28;19971;-78
2024/01/02 13:09:31;;;;;;;;;;;7.00;99.90;;;;;;5004360;28;20434;-79
2024/01/02 13:12:17;;;;;;;;;;;7.10;99.90;;;;;;4993669;28;20010;-78
2024/01/02 13:15:05;;;;;;;;;;;7.20;99.90;;;;;;4997889;28;19913;-78
2024/01/02 13:17:51;;;;;;;;;;;7.30;99.90;;;;;;5010687;28;20011;-78
2024/01/02 13:20:36;;;;;;;;;;;7.30;99.90;;;;;;5021138;28;19923;-78
2024/01/02 13:23:22;;;;;;;;;;;7.40;99.90;;;;;;4987738;28;19996;-79
2024/01/02 13:26:08;;;;;;;;;;;7.40;99.90;;;;;;4983312;28;19928;-79
2024/01/02 13:28:54;;;;;;;;;;;7.50;99.90;;;;;;5001951;28;20277;-79
2024/01/02 13:31:40;;;;;;;;;;;7.60;99.90;;;;;;4998699;28;19943;-79
2024/01/02 13:34:27;;;;;;;;;;;7.70;99.90;;;;;;4988710;28;19917;-79
2024/01/02 13:37:26;;;;;;;;;;;7.70;99.90;;;;;;4991855;28;19921;-79
2024/01/02 13:40:18;;;;;;;;;;;7.70;99.90;;;;;;4999455;28;20055;-79
2024/01/02 13:43:05;;;;;;;;;;;7.80;99.90;;;;;;5014187;28;19921;-79
2024/01/02 13:45:51;;;;;;;;;;;;;;;;;;5003726;28;20321;-80
2024/01/02 13:48:38;;;;;;;;;;;;;;;;;;4989260;28;19922;-80
2024/01/02 13:51:26;;;;;;;;;;;8.00;99.90;;;;;;5014790;28;19960;-79
2024/01/02 13:54:14;;;;;;;;;;;8.00;99.90;;;;;;4987744;28;19972;-80
2024/01/02 13:57:00;;;;;;;;;;;8.10;99.90;;;;;;4993437;28;20273;-80
2024/01/02 13:59:46;;;;;;;;;;;8.10;99.90;;;;;;5003069;28;19917;-79
2024/01/02 14:02:32;;;;;;;;;;;8.20;99.90;;;;;;4989545;28;19996;-79
2024/01/02 14:05:22;;;;;;;;;;;8.30;99.90;;;;;;5006422;28;20365;-79
2024/01/02 14:08:07;;;;;;;;;;;8.30;99.90;;;;;;4985598;28;19925;-80
2024/01/02 14:10:53;;;;;;;;;;;8.40;99.90;;;;;;4986170;28;19949;-80
2024/01/02 14:13:42;;;;;;;;;;;8.40;99.90;;;;;;4981596;28;19992;-79
2024/01/02 14:16:27;;;;;;;;;;;8.50;99.90;;;;;;4997124;28;19917;-78
2024/01/02 14:19:13;;;;;;;;;;;8.50;99.90;;;;;;5010913;28;19914;-79
2024/01/02 14:22:03;;;;;;;;;;;8.60;99.90;;;;;;4986242;28;20396;-79
2024/01/02 14:25:08;;;;;;;;;;;8.60;99.90;;;;;;4999023;28;19921;-78
2024/01/02 14:27:57;;;;;;;;;;;8.60;99.90;;;;;;5013121;28;19921;-79
2024/01/02 14:30:43;;;;;;;;;;;8.70;99.90;;;;;;5009010;28;20334;-79
2024/01/02 14:33:41;;;;;;;;;;;8.70;99.90;;;;;;4997134;28;19949;-79
2024/01/02 14:36:33;;;;;;;;;;;8.70;99.90;;;;;;4989470;28;19918;-79
2024/01/02 14:39:38;;;;;;;;;;;8.80;99.90;;;;;;5012981;28;19928;-79
2024/01/02 14:42:47;;;;;;;;;;;8.80;99.90;;;;;;5013977;28;20339;-78
2024/01/02 14:45:43;;;;;;;;;;;8.90;99.90;;;;;;5014833;28;20370;-78
2024/01/02 14:48:34;;;;;;;;;;;8.90;99.90;;;;;;5024669;28;19921;-77
2024/01/02 14:51:26;;;;;;;;;;;8.90;99.90;;;;;;4992546;28;19953;-78
2024/01/02 14:54:28;;;;;;;;;;;8.90;99.90;;;;;;5010525;28;19917;-77
2024/01/02 14:57:14;;;;;;;;;;;9.00;99.90;;;;;;4993509;28;19972;-78
2024/01/02 15:00:04;;;;;;;;;;;;;;;;;;5005829;28;19917;-77
2024/01/02 15:02:50;;;;;;;;;;;;;;;;;;5003168;28;19929;-76
2024/01/02 15:05:38;;;;;;;;;;;;;;;;;;5005960;28;20174;-76
2024/01/02 15:08:27;;;;;;;;;;;;;;;;;;4995601;28;19943;-76
2024/01/02 15:11:13;;;;;;;;;;;;;;;;;;4989771;28;19917;-76
2024/01/02 15:14:00;;;;;;;;;;;;;;;;;;4992290;28;19971;-76
2024/01/02 15:16:46;;;;;;;;;;;;;;;;;;5007460;28;19913;-76
2024/01/02 15:19:32;;;;;;;;;;;;;;;;;;5007273;28;19914;-75
2024/01/02 15:22:19;;;;;;;;;;;;;;;;;;5005779;28;19956;-75
2024/01/02 15:25:05;;;;;;;;;;;;;;;;;;5003595;28;19952;-75
2024/01/02 15:27:52;;;;;;;;;;;;;;;;;;5006309;28;19943;-75
2024/01/02 15:30:38;;;;;;;;;;;;;;;;;;5003903;28;20330;-76
2024/01/02 15:33:24;;;;;;;;;;;;;;;;;;5007066;28;20004;-76
2024/01/02 15:36:10;;;;;;;;;;;;;;;;;;4983069;28;19918;-76
2024/01/02 15:39:02;;;;;;;;;;;9.10;99.90;;;;;;4989791;28;19933;-76
2024/01/02 15:41:58;;;;;;;;;;;9.10;99.90;;;;;;5005041;28;19917;-76
2024/01/02 15:45:07;;;;;;;;;;;9.10;99.90;;;;;;5002639;28;20281;-75
2024/01/02 15:48:05;;;;;;;;;;;9.10;99.90;;;;;;4976069;28;19983;-76
2024/01/02 15:50:51;;;;;;;;;;;9.10;99.90;;;;;;5005297;28;19925;-76
2024/01/02 15:53:41;;;;;;;;;;;9.20;99.90;;;;;;5018623;28;19922;-76
2024/01/02 15:56:30;;;;;;;;;;;9.20;99.90;;;;;;4987331;28;20361;-76
2024/01/02 15:59:25;;;;;;;;;;;9.20;99.90;;;;;;4988008;28;20193;-75
2024/01/02 16:02:30;;;;;;;;;;;9.20;99.90;;;;;;4981827;28;19921;-76
2024/01/02 16:05:35;;;;;;;;;;;9.20;99.90;;;;;;4979283;28;19917;-75
2024/01/02 16:08:30;;;;;;;;;;;9.30;99.90;;;;;;5001164;28;19978;-75
2024/01/02 16:11:26;;;;;;;;;;;9.30;99.90;;;;;;5007754;28;20219;-75
2024/01/02 16:14:17;;;;;;;;;;;9.20;99.90;;;;;;5015106;28;20386;-76
2024/01/02 16:17:09;;;;;;;;;;;9.20;99.90;;;;;;4976905;28;20321;-75
2024/01/02 16:20:14;;;;;;;;;;;9.20;99.90;;;;;;4983567;28;19979;-75
2024/01/02 16:23:12;;;;;;;;;;;9.30;99.90;;;;;;4991732;28;19925;-75
2024/01/02 16:26:06;;;;;;;;;;;9.30;99.90;;;;;;4988668;28;19984;-75
2024/01/02 16:28:51;;;;;;;;;;;9.30;99.90;;;;;;4989984;28;20350;-75
2024/01/02 16:31:37;;;;;;;;;;;9.30;99.90;;;;;;4987180;28;19932;-75
2024/01/02 16:34:33;;;;;;;;;;;9.30;99.90;;;;;;5003183;28;19996;-75
2024/01/02 16:37:38;;;;;;;;;;;9.30;99.90;;;;;;4990444;28;20317;-75
2024/01/02 16:40:50;;;;;;;;;;;9.20;99.90;;;;;;5013602;28;19966;-76
2024/01/02 16:43:37;;;;;;;;;;;9.30;99.90;;;;;;5007759;28;20008;-76
2024/01/02 16:46:23;;;;;;;;;;;9.20;99.90;;;;;;5008842;28;19974;-75
2024/01/02 16:49:15;;;;;;;;;;;9.20;99.90;;;;;;5008293;28;19928;-75
2024/01/02 16:52:01;;;;;;;;;;;9.20;99.90;;;;;;5007953;28;20173;-75
2024/01/02 16:54:47;;;;;;;;;;;9.20;99.90;;;;;;5013426;28;19917;-75
2024/01/02 16:57:33;;;;;;;;;;;9.20;99.90;;;;;;5001649;28;19944;-76
2024/01/02 17:00:22;;;;;;;;;;;9.20;99.90;;;;;;4990959;28;20008;-76
2024/01/02 17:03:08;;;;;;;;;;;9.20;99.90;;;;;;4973322;28;19957;-77
2024/01/02 17:05:56;;;;;;;;;;;9.20;99.90;;;;;;4964601;28;20023;-75
2024/01/02 17:08:42;;;;;;;;;;;9.20;99.90;;;;;;5017782;28;20299;-75
2024/01/02 17:11:28;;;;;;;;;;;9.20;99.90;;;;;;5002020;28;20327;-76
2024/01/02 17:14:14;;;;;;;;;;;9.20;99.90;;;;;;5017339;28;19924;-75
2024/01/02 17:17:00;;;;;;;;;;;9.20;99.90;;;;;;4986297;28;19921;-75